Time;durP1;ratioP1;P1;durP2;ratioP2;P2;SDS_P1;SDS_P2;PMS_P1;PMS_P2;Temp;Humidity;BMP_temperature;BMP_pressure;BME280_temperature;BME280_humidity;BME280_pressure;Samples;Min_cycle;Max_cycle;Signal;HPM_P1;HPM_P2
2022/03/02 00:03:01;;;;;;;41.40;25.37;;;;;5.20;102052.00;;;;10319048;28;20264;-81
2022/03/02 00:08:04;;;;;;;37.27;23.70;;;;;5.30;102058.00;;;;10325149;28;20203;-81
2022/03/02 00:13:06;;;;;;;39.67;25.20;;;;;5.20;102049.00;;;;10362723;28;20587;-81
2022/03/02 00:18:08;;;;;;;37.63;24.50;;;;;5.20;102054.00;;;;10318283;28;20671;-81
2022/03/02 00:23:10;;;;;;;40.90;24.80;;;;;5.20;102046.00;;;;10319303;28;20687;-81
2022/03/02 00:28:13;;;;;;;41.00;24.17;;;;;5.20;102050.00;;;;10319927;28;20199;-81
2022/03/02 00:33:15;;;;;;;43.80;24.60;;;;;5.20;102048.00;;;;10294369;28;20695;-81
2022/03/02 00:38:18;;;;;;;40.40;23.87;;;;;5.10;102049.00;;;;10342630;28;20215;-79
2022/03/02 00:43:20;;;;;;;43.20;26.43;;;;;5.10;102044.00;;;;10343120;28;20283;-81
2022/03/02 00:48:22;;;;;;;40.40;25.33;;;;;5.10;102037.00;;;;10344409;28;20200;-81
2022/03/02 00:53:24;;;;;;;41.73;24.40;;;;;5.00;102033.00;;;;10350219;28;20208;-81
2022/03/02 00:58:26;;;;;;;44.47;25.87;;;;;5.00;102032.00;;;;10383778;28;20239;-81
2022/03/02 01:03:28;;;;;;;39.70;23.50;;;;;5.00;102031.00;;;;10351649;28;20250;-81
2022/03/02 01:08:30;;;;;;;37.73;25.57;;;;;5.00;102035.00;;;;10390320;28;20244;-81
2022/03/02 01:13:32;;;;;;;38.57;24.17;;;;;5.00;102032.00;;;;10366472;28;20220;-81
2022/03/02 01:18:36;;;;;;;41.47;24.50;;;;;5.00;102026.00;;;;10349078;28;20219;-81
2022/03/02 01:23:39;;;;;;;39.57;25.20;;;;;4.90;102034.00;;;;10348155;28;20219;-79
2022/03/02 01:28:41;;;;;;;40.57;24.63;;;;;4.90;102028.00;;;;10348731;28;20226;-81
2022/03/02 01:33:43;;;;;;;41.90;23.70;;;;;4.90;102015.00;;;;10348792;28;20200;-80
2022/03/02 01:38:45;;;;;;;37.57;23.97;;;;;4.90;102024.00;;;;10365035;28;20214;-80
2022/03/02 01:43:49;;;;;;;37.87;24.97;;;;;4.90;102028.00;;;;10363018;28;20200;-81
2022/03/02 01:48:51;;;;;;;35.50;23.47;;;;;4.90;102015.00;;;;10347433;28;20199;-79
2022/03/02 01:53:54;;;;;;;43.93;24.60;;;;;4.90;102009.00;;;;10332853;28;20195;-81
2022/03/02 01:58:56;;;;;;;42.03;25.10;;;;;4.90;102013.00;;;;10348116;28;20202;-81
2022/03/02 02:04:00;;;;;;;44.30;25.70;;;;;4.90;101998.00;;;;10365468;28;20618;-80
2022/03/02 02:09:05;;;;;;;46.07;25.33;;;;;4.80;101991.00;;;;10363840;28;20302;-80
2022/03/02 02:14:08;;;;;;;42.57;24.33;;;;;4.80;102001.00;;;;10347627;28;20253;-80
2022/03/02 02:19:10;;;;;;;34.00;23.00;;;;;4.80;101994.00;;;;10364630;28;20258;-80
2022/03/02 02:24:13;;;;;;;39.13;22.90;;;;;4.70;101988.00;;;;10364117;28;20220;-80
2022/03/02 02:29:15;;;;;;;38.07;24.53;;;;;4.60;101972.00;;;;10347252;28;20212;-80
2022/03/02 02:34:17;;;;;;;35.33;24.70;;;;;4.50;101973.00;;;;10347790;28;20206;-80
2022/03/02 02:39:19;;;;;;;39.53;23.87;;;;;4.50;101971.00;;;;10322517;28;20258;-81
2022/03/02 02:44:22;;;;;;;37.07;24.73;;;;;4.40;101959.00;;;;10306761;28;20570;-80
2022/03/02 02:49:25;;;;;;;36.33;23.70;;;;;4.40;101960.00;;;;10333602;28;20346;-80
2022/03/02 02:54:27;;;;;;;37.43;22.53;;;;;4.30;101961.00;;;;10345564;28;20200;-80
2022/03/02 02:59:28;;;;;;;39.13;24.87;;;;;4.30;101951.00;;;;10346172;28;20195;-80
2022/03/02 03:04:31;;;;;;;43.43;23.50;;;;;4.30;101947.00;;;;10362082;28;20191;-80
2022/03/02 03:09:33;;;;;;;35.27;23.23;;;;;4.30;101953.00;;;;10362858;28;20717;-80
2022/03/02 03:14:35;;;;;;;34.43;22.47;;;;;4.30;101954.00;;;;10345190;28;20226;-80
2022/03/02 03:19:37;;;;;;;36.93;22.80;;;;;4.20;101946.00;;;;10344612;28;20261;-80
2022/03/02 03:24:39;;;;;;;35.40;22.37;;;;;4.10;101953.00;;;;10345924;28;20278;-80
2022/03/02 03:29:41;;;;;;;37.77;23.07;;;;;4.00;101951.00;;;;10361618;28;20208;-80
2022/03/02 03:34:42;;;;;;;37.53;23.30;;;;;4.00;101949.00;;;;10344977;28;20594;-79
2022/03/02 03:39:44;;;;;;;38.90;23.53;;;;;3.90;101947.00;;;;10360586;28;20176;-80
2022/03/02 03:44:46;;;;;;;38.50;23.23;;;;;3.90;101943.00;;;;10345172;28;20195;-80
2022/03/02 03:49:48;;;;;;;44.57;23.53;;;;;4.00;101936.00;;;;10344447;28;20270;-80
2022/03/02 03:54:50;;;;;;;36.13;23.20;;;;;4.00;101933.00;;;;10344417;28;20246;-80
2022/03/02 03:59:52;;;;;;;38.33;23.53;;;;;4.00;101950.00;;;;10328062;28;20192;-80
2022/03/02 04:04:54;;;;;;;34.17;22.73;;;;;4.00;101935.00;;;;10364043;28;20570;-80
2022/03/02 04:09:56;;;;;;;38.37;24.03;;;;;4.00;101928.00;;;;10352111;28;20694;-80
2022/03/02 04:14:58;;;;;;;37.00;21.27;;;;;3.90;101916.00;;;;10353014;28;20216;-80
2022/03/02 04:20:00;;;;;;;33.63;21.27;;;;;3.90;101911.00;;;;10352340;28;20191;-80
2022/03/02 04:25:02;;;;;;;38.73;22.40;;;;;3.80;101901.00;;;;10350229;28;20226;-80
2022/03/02 04:30:06;;;;;;;36.57;23.17;;;;;3.80;101903.00;;;;10351561;28;20203;-80
2022/03/02 04:35:10;;;;;;;32.70;20.90;;;;;3.70;101888.00;;;;10345556;28;20206;-80
2022/03/02 04:40:13;;;;;;;34.90;22.33;;;;;3.60;101897.00;;;;10343097;28;20228;-80
2022/03/02 04:45:15;;;;;;;34.00;21.30;;;;;3.50;101889.00;;;;10342776;28;20176;-80
2022/03/02 04:50:19;;;;;;;37.47;22.13;;;;;3.50;101875.00;;;;10342468;28;20211;-80
2022/03/02 04:55:21;;;;;;;34.10;21.03;;;;;3.40;101881.00;;;;10342336;28;20207;-80
2022/03/02 05:00:31;;;;;;;34.53;20.50;;;;;3.40;101875.00;;;;10342854;28;20287;-80
2022/03/02 05:05:36;;;;;;;33.13;20.17;;;;;3.30;101873.00;;;;10378531;28;20210;-79
2022/03/02 05:10:38;;;;;;;32.70;21.67;;;;;3.30;101847.00;;;;10351656;28;20211;-79
2022/03/02 05:15:40;;;;;;;37.87;22.43;;;;;3.40;101859.00;;;;10349426;28;20643;-79
2022/03/02 05:20:42;;;;;;;37.70;22.70;;;;;3.40;101851.00;;;;10350039;28;20191;-79
2022/03/02 05:25:43;;;;;;;37.50;22.33;;;;;3.30;101857.00;;;;10349429;28;20220;-79
2022/03/02 05:30:45;;;;;;;31.80;21.67;;;;;3.30;101852.00;;;;10365522;28;20215;-79
2022/03/02 05:35:49;;;;;;;30.10;20.60;;;;;3.20;101851.00;;;;10333180;28;20199;-79
2022/03/02 05:40:51;;;;;;;33.77;21.90;;;;;3.20;101847.00;;;;10349388;28;20191;-79
2022/03/02 05:45:53;;;;;;;40.13;21.77;;;;;3.10;101851.00;;;;10365169;28;20203;-79
2022/03/02 05:50:55;;;;;;;36.57;22.43;;;;;3.10;101845.00;;;;10381237;28;20629;-79
2022/03/02 05:55:57;;;;;;;38.00;23.37;;;;;3.00;101853.00;;;;10348583;28;20203;-79
2022/03/02 06:01:03;;;;;;;34.70;20.97;;;;;3.00;101841.00;;;;10348817;28;20636;-79
2022/03/02 06:06:05;;;;;;;36.50;21.33;;;;;3.10;101839.00;;;;10348022;28;20267;-79
2022/03/02 06:11:07;;;;;;;33.30;20.57;;;;;3.10;101843.00;;;;10364551;28;20207;-79
2022/03/02 06:16:10;;;;;;;32.07;19.40;;;;;3.10;101839.00;;;;10348173;28;20200;-79
2022/03/02 06:21:26;;;;;;;31.40;19.53;;;;;3.10;101841.00;;;;10347543;28;20239;-79
2022/03/02 06:26:28;;;;;;;29.77;18.83;;;;;3.10;101842.00;;;;10363075;28;20368;-79
2022/03/02 06:31:31;;;;;;;34.20;20.83;;;;;3.10;101840.00;;;;10345963;28;20277;-79
2022/03/02 06:36:34;;;;;;;29.33;19.30;;;;;3.00;101852.00;;;;10347284;28;20207;-79
2022/03/02 06:41:51;;;;;;;35.33;20.67;;;;;3.00;101851.00;;;;10363946;28;20203;-80
2022/03/02 06:47:12;;;;;;;35.10;20.37;;;;;3.00;101853.00;;;;10331745;28;20210;-80
2022/03/02 06:52:18;;;;;;;32.17;20.10;;;;;3.00;101848.00;;;;10347583;28;20218;-79
2022/03/02 06:57:27;;;;;;;33.87;19.33;;;;;3.00;101855.00;;;;10330637;28;20253;-79
2022/03/02 07:02:48;;;;;;;31.57;20.00;;;;;3.00;101847.00;;;;10363158;28;20172;-79
2022/03/02 07:07:51;;;;;;;33.97;20.30;;;;;3.20;101848.00;;;;10357184;28;20385;-79
2022/03/02 07:12:53;;;;;;;34.50;20.97;;;;;3.30;101853.00;;;;10361747;28;20235;-79
2022/03/02 07:17:58;;;;;;;39.37;23.67;;;;;3.40;101857.00;;;;10361120;28;20203;-80
2022/03/02 07:23:03;;;;;;;35.07;22.50;;;;;3.60;101863.00;;;;10345459;28;20219;-80
2022/03/02 07:28:09;;;;;;;38.47;21.43;;;;;3.70;101865.00;;;;10338524;28;20619;-80
2022/03/02 07:33:14;;;;;;;39.20;22.83;;;;;3.90;101855.00;;;;10329511;28;20212;-80
2022/03/02 07:38:16;;;;;;;45.00;22.90;;;;;4.00;101860.00;;;;10344209;28;20203;-80
2022/03/02 07:43:20;;;;;;;37.53;21.87;;;;;4.10;101844.00;;;;10336373;28;20231;-79
2022/03/02 07:48:22;;;;;;;30.93;20.50;;;;;4.50;101857.00;;;;10341774;28;20212;-79
2022/03/02 07:53:29;;;;;;;34.17;20.33;;;;;5.00;101861.00;;;;10325982;28;20582;-79
2022/03/02 07:58:32;;;;;;;29.57;19.83;;;;;5.40;101851.00;;;;10320272;28;20567;-79
2022/03/02 08:03:38;;;;;;;32.07;20.10;;;;;5.90;101848.00;;;;10325192;28;20255;-79
2022/03/02 08:08:41;;;;;;;32.17;21.10;;;;;6.30;101856.00;;;;10318880;28;20208;-79
2022/03/02 08:13:43;;;;;;;38.77;20.67;;;;;6.50;101849.00;;;;10298560;28;20223;-79
2022/03/02 08:18:45;;;;;;;31.80;20.37;;;;;6.60;101863.00;;;;10351877;28;20211;-79
2022/03/02 08:23:49;;;;;;;33.40;19.37;;;;;6.70;101864.00;;;;10350516;28;20211;-79
2022/03/02 08:28:55;;;;;;;28.83;19.90;;;;;6.80;101861.00;;;;10349102;28;20204;-79
2022/03/02 08:34:00;;;;;;;34.43;21.13;;;;;6.90;101853.00;;;;10359373;28;20243;-79
2022/03/02 08:39:05;;;;;;;33.53;19.97;;;;;7.10;101856.00;;;;10334536;28;20258;-80
2022/03/02 08:44:09;;;;;;;32.90;19.87;;;;;7.30;101861.00;;;;10319249;28;20188;-80
2022/03/02 08:49:16;;;;;;;32.57;20.50;;;;;7.50;101852.00;;;;10357845;28;20195;-77
2022/03/02 08:54:19;;;;;;;30.33;19.87;;;;;7.70;101853.00;;;;10312240;28;20262;-80
2022/03/02 08:59:24;;;;;;;32.07;19.40;;;;;7.80;101861.00;;;;10321764;28;20212;-79
2022/03/02 09:04:30;;;;;;;32.03;19.77;;;;;7.90;101846.00;;;;10362579;28;20274;-79
2022/03/02 09:09:32;;;;;;;32.13;20.40;;;;;8.00;101846.00;;;;10390781;28;20198;-79
2022/03/02 09:14:34;;;;;;;32.80;20.70;;;;;8.10;101845.00;;;;10358871;28;20215;-79
2022/03/02 09:19:36;;;;;;;31.80;20.47;;;;;8.40;101838.00;;;;10379571;28;20706;-79
2022/03/02 09:24:39;;;;;;;34.10;21.00;;;;;8.70;101831.00;;;;10341239;28;20215;-79
2022/03/02 09:29:45;;;;;;;33.17;21.40;;;;;8.90;101844.00;;;;10359114;28;20206;-79
2022/03/02 09:34:50;;;;;;;30.43;20.23;;;;;9.20;101843.00;;;;10348302;28;20207;-79
2022/03/02 09:39:53;;;;;;;30.47;19.87;;;;;9.50;101833.00;;;;10353263;28;20702;-79
2022/03/02 09:45:07;;;;;;;30.50;18.90;;;;;9.40;101822.00;;;;10363011;28;20203;-79
2022/03/02 09:50:13;;;;;;;27.43;18.80;;;;;9.40;101816.00;;;;10334479;28;20208;-79
2022/03/02 09:55:21;;;;;;;28.33;18.60;;;;;9.50;101809.00;;;;10307945;28;20196;-79
2022/03/02 10:00:26;;;;;;;29.13;18.73;;;;;9.90;101806.00;;;;10310273;28;20192;-78
2022/03/02 10:05:33;;;;;;;25.97;18.53;;;;;10.20;101800.00;;;;10363903;28;20209;-79
2022/03/02 10:10:40;;;;;;;28.13;18.93;;;;;10.60;101798.00;;;;10386545;28;20245;-79
2022/03/02 10:15:44;;;;;;;27.27;19.03;;;;;11.20;101795.00;;;;10380388;28;20335;-79
2022/03/02 10:20:49;;;;;;;27.57;18.03;;;;;11.40;101798.00;;;;10361509;28;20192;-79
2022/03/02 10:25:52;;;;;;;25.73;18.33;;;;;11.80;101787.00;;;;10348637;28;20801;-80
2022/03/02 10:31:28;;;;;;;25.23;18.20;;;;;12.10;101788.00;;;;10317891;28;20214;-79
2022/03/02 10:36:30;;;;;;;25.47;17.37;;;;;12.40;101775.00;;;;10338741;28;20201;-78
2022/03/02 10:41:39;;;;;;;21.83;16.17;;;;;12.60;101783.00;;;;10335420;28;20187;-79
2022/03/02 10:46:46;;;;;;;24.50;17.30;;;;;12.60;101781.00;;;;10342861;28;20211;-79
2022/03/02 10:51:48;;;;;;;23.63;17.83;;;;;12.80;101790.00;;;;10338836;28;20226;-79
2022/03/02 10:56:55;;;;;;;23.23;17.43;;;;;13.00;101780.00;;;;10348002;28;20202;-79
2022/03/02 11:02:00;;;;;;;28.70;17.67;;;;;13.40;101778.00;;;;10359105;28;20226;-79
2022/03/02 11:07:02;;;;;;;26.60;16.80;;;;;13.50;101764.00;;;;10340295;28;20200;-78
2022/03/02 11:12:25;;;;;;;21.80;16.07;;;;;13.40;101758.00;;;;10320917;28;20270;-79
2022/03/02 11:17:27;;;;;;;22.17;15.93;;;;;13.20;101761.00;;;;10358782;28;20191;-79
2022/03/02 11:22:29;;;;;;;23.93;15.57;;;;;12.90;101756.00;;;;10355249;28;20207;-78
2022/03/02 11:27:41;;;;;;;21.70;14.87;;;;;13.30;101752.00;;;;10354064;28;20258;-78
2022/03/02 11:32:46;;;;;;;20.07;14.07;;;;;13.60;101739.00;;;;10308068;28;20243;-79
2022/03/02 11:37:58;;;;;;;20.00;14.40;;;;;14.60;101733.00;;;;10321931;28;20192;-79
2022/03/02 11:43:13;;;;;;;17.37;13.97;;;;;15.10;101730.00;;;;10332992;28;20211;-80
2022/03/02 11:48:15;;;;;;;24.27;14.70;;;;;15.40;101726.00;;;;10324502;28;20278;-80
2022/03/02 11:53:28;;;;;;;19.57;14.67;;;;;15.60;101726.00;;;;10326179;28;20211;-80
2022/03/02 11:58:55;;;;;;;22.47;14.93;;;;;15.70;101719.00;;;;10357788;28;20195;-79
2022/03/02 12:04:17;;;;;;;20.57;14.33;;;;;15.70;101709.00;;;;10350588;28;20693;-79
2022/03/02 12:09:28;;;;;;;18.33;13.70;;;;;15.70;101710.00;;;;10340701;28;20290;-79
2022/03/02 12:14:44;;;;;;;16.23;12.83;;;;;15.20;101702.00;;;;10339826;28;20219;-79
2022/03/02 12:19:54;;;;;;;19.07;13.87;;;;;15.30;101684.00;;;;10350332;28;20795;-79
2022/03/02 12:24:58;;;;;;;16.73;12.30;;;;;15.70;101671.00;;;;10373622;28;20273;-79
2022/03/02 12:30:10;;;;;;;18.63;12.63;;;;;16.00;101674.00;;;;10350316;28;20247;-79
2022/03/02 12:35:17;;;;;;;16.23;11.80;;;;;16.80;101662.00;;;;10343621;28;20215;-79
2022/03/02 12:40:20;;;;;;;14.90;11.57;;;;;16.70;101658.00;;;;10387738;28;20205;-79
2022/03/02 12:45:23;;;;;;;13.93;11.13;;;;;16.30;101658.00;;;;10372249;28;20335;-79
2022/03/02 12:50:25;;;;;;;14.88;11.77;;;;;16.20;101648.00;;;;10388539;28;20736;-78
2022/03/02 12:55:27;;;;;;;13.63;11.43;;;;;15.70;101642.00;;;;10334567;28;20219;-78
2022/03/02 13:00:29;;;;;;;15.23;12.43;;;;;15.50;101637.00;;;;10339178;28;20607;-79
2022/03/02 13:05:41;;;;;;;17.17;12.87;;;;;15.80;101631.00;;;;10379013;28;20227;-78
2022/03/02 13:10:44;;;;;;;18.33;12.87;;;;;15.70;101631.00;;;;10361700;28;20196;-78
2022/03/02 13:15:49;;;;;;;17.60;12.23;;;;;15.50;101626.00;;;;10345837;28;20207;-78
2022/03/02 13:21:00;;;;;;;17.80;12.07;;;;;15.40;101624.00;;;;10345548;28;20192;-78
2022/03/02 13:26:02;;;;;;;15.57;10.90;;;;;15.50;101620.00;;;;10353024;28;20226;-78
2022/03/02 13:31:18;;;;;;;13.40;10.43;;;;;15.70;101613.00;;;;10336514;28;20258;-79
2022/03/02 13:37:00;;;;;;;14.83;8.03;;;;;15.90;101608.00;;;;10356266;28;20655;-78
2022/03/02 13:42:06;;;;;;;10.77;8.07;;;;;16.00;101603.00;;;;10259943;28;20231;-79
2022/03/02 13:47:08;;;;;;;10.37;8.70;;;;;16.00;101593.00;;;;10344515;28;20208;-79
2022/03/02 13:52:10;;;;;;;14.27;9.50;;;;;16.30;101588.00;;;;10342641;28;20587;-78
2022/03/02 13:57:30;;;;;;;16.70;9.43;;;;;16.70;101583.00;;;;10359369;28;20721;-77
2022/03/02 14:02:36;;;;;;;16.50;10.37;;;;;17.00;101573.00;;;;10339766;28;20613;-77
2022/03/02 14:07:39;;;;;;;14.20;10.00;;;;;17.10;101569.00;;;;10335440;28;20200;-76
2022/03/02 14:12:50;;;;;;;14.80;9.93;;;;;17.10;101560.00;;;;10334964;28;20556;-77
2022/03/02 14:17:53;;;;;;;14.40;9.77;;;;;16.90;101552.00;;;;10335121;28;20196;-77
2022/03/02 14:23:08;;;;;;;12.70;9.27;;;;;16.90;101553.00;;;;10337446;28;20231;-77
2022/03/02 14:28:14;;;;;;;17.13;9.63;;;;;16.60;101543.00;;;;10335625;28;20203;-77
2022/03/02 14:33:18;;;;;;;10.83;9.10;;;;;16.80;101529.00;;;;10374105;28;20211;-77
2022/03/02 14:38:20;;;;;;;13.33;9.53;;;;;17.20;101521.00;;;;10319267;28;20279;-76
2022/03/02 14:43:22;;;;;;;16.47;9.37;;;;;17.80;101501.00;;;;10353286;28;20282;-77
2022/03/02 14:48:27;;;;;;;14.80;10.13;;;;;18.00;101507.00;;;;10366757;28;20299;-76
2022/03/02 14:53:31;;;;;;;13.13;9.27;;;;;18.00;101497.00;;;;10357294;28;20216;-77
2022/03/02 14:58:40;;;;;;;16.10;9.40;;;;;18.20;101498.00;;;;10317306;28;20231;-76
2022/03/02 15:03:45;;;;;;;13.15;9.52;;;;;17.90;101499.00;;;;10330746;28;20203;-77
2022/03/02 15:09:02;;;;;;;11.97;9.27;;;;;18.10;101472.00;;;;10358090;28;20199;-77
2022/03/02 15:15:04;;;;;;;15.00;9.30;;;;;18.30;101470.00;;;;10360662;28;20690;-77
2022/03/02 15:19:54;;;;;;;11.50;9.13;;;;;18.10;101480.00;;;;10338332;28;20199;-77
2022/03/02 15:24:57;;;;;;;14.53;9.60;;;;;16.60;101479.00;;;;10357043;28;20235;-77
2022/03/02 15:30:13;;;;;;;12.30;9.33;;;;;16.60;101485.00;;;;10357119;28;20191;-77
2022/03/02 15:35:21;;;;;;;14.20;9.50;;;;;16.90;101467.00;;;;10364181;28;20304;-77
2022/03/02 15:40:26;;;;;;;14.77;10.60;;;;;15.80;101494.00;;;;10397752;28;20218;-76
2022/03/02 15:45:30;;;;;;;13.13;9.70;;;;;14.70;101490.00;;;;10398255;28;20215;-77
2022/03/02 15:50:39;;;;;;;11.83;9.30;;;;;14.30;101485.00;;;;10364965;28;20211;-77
2022/03/02 15:55:46;;;;;;;14.73;9.47;;;;;14.10;101478.00;;;;10313472;28;20239;-77
2022/03/02 16:00:49;;;;;;;13.27;10.10;;;;;13.90;101476.00;;;;10323614;28;20270;-78
2022/03/02 16:05:54;;;;;;;16.90;10.03;;;;;14.00;101474.00;;;;10374503;28;20196;-77
2022/03/02 16:11:17;;;;;;;14.97;10.57;;;;;13.50;101484.00;;;;10341579;28;20250;-77
2022/03/02 16:16:20;;;;;;;14.80;9.90;;;;;13.10;101484.00;;;;10324850;28;20333;-76
2022/03/02 16:21:24;;;;;;;13.83;9.17;;;;;12.90;101484.00;;;;10357276;28;20639;-77
2022/03/02 16:26:31;;;;;;;17.00;9.40;;;;;12.60;101480.00;;;;10352564;28;20214;-77
2022/03/02 16:31:34;;;;;;;11.70;8.80;;;;;12.30;101473.00;;;;10341399;28;20215;-77
2022/03/02 16:36:44;;;;;;;11.63;8.70;;;;;12.00;101480.00;;;;10378113;28;20577;-77
2022/03/02 16:41:46;;;;;;;12.27;9.40;;;;;11.70;101481.00;;;;10414353;28;20244;-77
2022/03/02 16:46:48;;;;;;;12.30;9.43;;;;;11.40;101481.00;;;;10429983;28;20206;-77
2022/03/02 16:51:50;;;;;;;15.77;9.60;;;;;11.00;101485.00;;;;10410683;28;20205;-77
2022/03/02 16:56:52;;;;;;;12.27;8.93;;;;;10.60;101484.00;;;;10409347;28;20202;-77
2022/03/02 17:01:55;;;;;;;14.67;9.53;;;;;10.20;101490.00;;;;10396739;28;20588;-77
2022/03/02 17:06:57;;;;;;;12.73;9.03;;;;;9.90;101486.00;;;;10449343;28;20193;-77
2022/03/02 17:11:59;;;;;;;15.53;9.90;;;;;9.60;101486.00;;;;10481843;28;20289;-77
2022/03/02 17:17:02;;;;;;;12.73;9.30;;;;;9.40;101479.00;;;;10428119;28;20186;-77
2022/03/02 17:22:05;;;;;;;11.90;9.20;;;;;9.20;101486.00;;;;10413313;28;20577;-77
2022/03/02 17:27:07;;;;;;;16.23;9.37;;;;;8.90;101483.00;;;;10423624;28;20222;-77
2022/03/02 17:32:10;;;;;;;12.83;9.13;;;;;8.70;101480.00;;;;10433927;28;20271;-77
2022/03/02 17:37:13;;;;;;;13.50;9.60;;;;;8.50;101480.00;;;;10412963;28;20183;-77
2022/03/02 17:42:19;;;;;;;15.70;8.80;;;;;8.30;101486.00;;;;10411204;28;20183;-77
2022/03/02 17:47:21;;;;;;;15.53;9.03;;;;;8.10;101484.00;;;;10426997;28;20224;-77
2022/03/02 17:52:23;;;;;;;13.20;8.90;;;;;7.90;101484.00;;;;10412293;28;20210;-77
2022/03/02 17:57:25;;;;;;;15.30;10.13;;;;;7.80;101480.00;;;;10456327;28;20630;-77
2022/03/02 18:02:28;;;;;;;12.87;9.13;;;;;7.70;101492.00;;;;10399873;28;20286;-77
2022/03/02 18:07:31;;;;;;;13.27;9.20;;;;;7.60;101493.00;;;;10402561;28;20198;-77
2022/03/02 18:12:34;;;;;;;15.00;9.40;;;;;7.50;101489.00;;;;10419085;28;20314;-77
2022/03/02 18:17:37;;;;;;;15.07;10.73;;;;;7.40;101490.00;;;;10380754;28;20206;-77
2022/03/02 18:22:40;;;;;;;16.27;9.60;;;;;7.40;101483.00;;;;10346056;28;20305;-77
2022/03/02 18:27:41;;;;;;;15.03;9.87;;;;;7.30;101492.00;;;;10427525;28;20252;-77
2022/03/02 18:32:43;;;;;;;16.77;9.90;;;;;7.10;101485.00;;;;10424802;28;20740;-77
2022/03/02 18:37:47;;;;;;;19.73;9.73;;;;;7.00;101484.00;;;;10425432;28;20557;-77
2022/03/02 18:42:49;;;;;;;15.03;9.97;;;;;7.10;101482.00;;;;10386602;28;20213;-77
2022/03/02 18:47:51;;;;;;;21.47;10.20;;;;;7.00;101472.00;;;;10389281;28;20604;-77
2022/03/02 18:52:55;;;;;;;16.17;10.03;;;;;6.90;101470.00;;;;10425570;28;20345;-77
2022/03/02 18:57:58;;;;;;;15.90;9.73;;;;;6.90;101473.00;;;;10393973;28;20194;-77
2022/03/02 19:03:02;;;;;;;17.20;10.47;;;;;6.90;101472.00;;;;10409407;28;20186;-77
2022/03/02 19:08:07;;;;;;;17.60;11.03;;;;;6.80;101478.00;;;;10374440;28;20297;-77
2022/03/02 19:13:14;;;;;;;15.47;11.00;;;;;6.70;101463.00;;;;10381183;28;20214;-77
2022/03/02 19:18:16;;;;;;;19.87;11.37;;;;;6.60;101461.00;;;;10388417;28;20225;-77
2022/03/02 19:23:19;;;;;;;16.80;10.97;;;;;6.40;101471.00;;;;10424397;28;20698;-77
2022/03/02 19:28:22;;;;;;;19.93;11.17;;;;;6.10;101472.00;;;;10397593;28;20245;-77
2022/03/02 19:33:25;;;;;;;17.80;11.93;;;;;5.80;101473.00;;;;10366213;28;20221;-77
2022/03/02 19:43:48;;;;;;;19.10;13.20;;;;;5.30;101473.00;;;;10417202;28;20740;-77
2022/03/02 19:48:52;;;;;;;19.07;12.60;;;;;5.10;101467.00;;;;10350764;28;20215;-77
2022/03/02 19:53:54;;;;;;;22.10;13.47;;;;;4.80;101471.00;;;;10398953;28;20222;-77
2022/03/02 19:59:00;;;;;;;18.40;12.70;;;;;4.70;101456.00;;;;10398459;28;20171;-77
2022/03/02 20:04:04;;;;;;;18.23;12.47;;;;;4.60;101463.00;;;;10357371;28;20203;-77
2022/03/02 20:09:08;;;;;;;20.80;13.23;;;;;4.50;101460.00;;;;10415648;28;20183;-77
2022/03/02 20:14:10;;;;;;;20.27;12.90;;;;;4.30;101455.00;;;;10398702;28;20199;-77
2022/03/02 20:19:12;;;;;;;19.60;13.43;;;;;4.10;101448.00;;;;10415595;28;20187;-77
2022/03/02 20:24:14;;;;;;;18.27;13.57;;;;;3.90;101453.00;;;;10382743;28;20219;-77
2022/03/02 20:29:16;;;;;;;20.53;13.90;;;;;3.80;101449.00;;;;10362757;28;20750;-77
2022/03/02 20:34:19;;;;;;;22.40;13.50;;;;;3.60;101440.00;;;;10386410;28;20238;-77
2022/03/02 20:39:21;;;;;;;20.07;13.43;;;;;3.50;101445.00;;;;10437568;28;20200;-76
2022/03/02 20:44:23;;;;;;;20.77;14.03;;;;;3.40;101446.00;;;;10439848;28;20248;-77
2022/03/02 20:49:25;;;;;;;21.83;14.60;;;;;3.40;101450.00;;;;10428096;28;20217;-77
2022/03/02 20:54:27;;;;;;;22.30;14.40;;;;;3.40;101447.00;;;;10447391;28;20858;-78
2022/03/02 20:59:29;;;;;;;25.50;14.87;;;;;3.90;101446.00;;;;10414680;28;20292;-78
2022/03/02 21:04:31;;;;;;;27.43;16.53;;;;;4.00;101447.00;;;;10431303;28;20216;-78
2022/03/02 21:09:33;;;;;;;33.17;17.77;;;;;3.90;101440.00;;;;10415296;28;20201;-78
2022/03/02 21:14:34;;;;;;;39.40;18.77;;;;;3.70;101437.00;;;;10430177;28;20623;-78
2022/03/02 21:19:36;;;;;;;38.47;19.47;;;;;3.60;101438.00;;;;10447524;28;20584;-78
2022/03/02 21:24:39;;;;;;;44.17;20.77;;;;;3.60;101445.00;;;;10411999;28;20206;-78
2022/03/02 21:29:41;;;;;;;26.13;16.17;;;;;3.50;101434.00;;;;10429863;28;20194;-78
2022/03/02 21:34:45;;;;;;;35.27;19.00;;;;;3.60;101441.00;;;;10462759;28;20229;-78
2022/03/02 21:39:48;;;;;;;28.70;18.73;;;;;3.50;101439.00;;;;10429732;28;20748;-78
2022/03/02 21:44:50;;;;;;;27.03;17.73;;;;;3.50;101433.00;;;;10439377;28;20186;-78
2022/03/02 21:49:53;;;;;;;26.40;16.73;;;;;3.50;101424.00;;;;10428934;28;20229;-78
2022/03/02 21:54:55;;;;;;;23.97;16.60;;;;;3.40;101433.00;;;;10428540;28;20585;-78
2022/03/02 21:59:57;;;;;;;32.53;17.40;;;;;3.20;101427.00;;;;10445149;28;20190;-78
2022/03/02 22:04:59;;;;;;;27.27;18.27;;;;;3.00;101417.00;;;;10425805;28;20201;-78
2022/03/02 22:10:01;;;;;;;28.60;18.43;;;;;2.80;101422.00;;;;10442352;28;20209;-78
2022/03/02 22:15:06;;;;;;;30.43;18.23;;;;;2.80;101413.00;;;;10450293;28;20237;-78
2022/03/02 22:20:10;;;;;;;31.23;18.70;;;;;2.90;101415.00;;;;10411002;28;20186;-78
2022/03/02 22:25:12;;;;;;;25.53;15.57;;;;;2.80;101413.00;;;;10443890;28;20203;-77
2022/03/02 22:30:14;;;;;;;25.03;15.37;;;;;3.10;101399.00;;;;10428201;28;20277;-77
2022/03/02 22:35:16;;;;;;;24.87;15.83;;;;;3.20;101404.00;;;;10435295;28;20621;-77
2022/03/02 22:40:18;;;;;;;23.43;17.53;;;;;3.00;101406.00;;;;10452380;28;20239;-77
2022/03/02 22:45:21;;;;;;;29.47;18.43;;;;;2.70;101409.00;;;;10427173;28;20201;-78
2022/03/02 22:50:22;;;;;;;27.60;18.30;;;;;2.40;101404.00;;;;10410811;28;20297;-78
2022/03/02 22:55:25;;;;;;;36.10;20.43;;;;;2.30;101407.00;;;;10438588;28;20202;-78
2022/03/02 23:00:27;;;;;;;28.67;18.50;;;;;2.10;101408.00;;;;10409932;28;20201;-78
2022/03/02 23:16:10;;;;;;;28.70;18.93;;;;;1.90;101400.00;;;;10418532;28;20202;-78
2022/03/02 23:21:12;;;;;;;30.27;20.23;;;;;1.90;101389.00;;;;10408958;28;20554;-77
2022/03/02 23:26:13;;;;;;;28.27;18.70;;;;;1.80;101387.00;;;;10412271;28;20264;-77
2022/03/02 23:31:16;;;;;;;32.20;19.33;;;;;1.80;101382.00;;;;10368519;28;20301;-78
2022/03/02 23:36:18;;;;;;;35.50;19.13;;;;;1.70;101377.00;;;;10419656;28;20213;-78
2022/03/02 23:41:20;;;;;;;35.13;20.83;;;;;1.70;101376.00;;;;10400320;28;20198;-77
2022/03/02 23:46:22;;;;;;;31.43;20.07;;;;;1.60;101380.00;;;;10442963;28;20198;-77
2022/03/02 23:51:24;;;;;;;33.13;20.03;;;;;1.40;101384.00;;;;10425599;28;20234;-77
2022/03/02 23:56:26;;;;;;;29.37;19.77;;;;;1.30;101387.00;;;;10408939;28;20217;-77
